Larkspur — C6BR6 — position and weather

sailwx.info

Track history (hours):
 
Tides and Currents Weather Stations Pressure Air Temp Water Temp Dewpoint Dewpoint Depression Visibility Wind Speed Wind Dir Waves Ship Positions

Larkspur

Operator: Transeuropa Lines

Last reported at 2017-Nov-23 09:29 UTC. Time now 2017-Nov-23 20:50 UTC.
Position N 22°35' E 120°18'.

Length 225 m; draft 8.7 m.

Type: Tanker. MMSI: 311000344.

Date/timePositionNaut miles runAvg speedWind from/ knotsBaromVisibWave heightAir tempDewpointWater temp
2017-Nov-23 09:29N 22°35' E 120°18'1 1.3
2017-Nov-23 09:00N 22°34' E 120°18'  
2017-Nov-20 00:30N 22°34' E 120°14'0 0.1
2017-Nov-20 00:00N 22°34' E 120°14'0 0.0
2017-Nov-19 23:30N 22°34' E 120°14'0 0.0
2017-Nov-19 23:00N 22°34' E 120°14'0 0.1
2017-Nov-19 22:30N 22°34' E 120°14'0 0.1
2017-Nov-19 21:56N 22°34' E 120°14'0 0.1
2017-Nov-19 21:30N 22°34' E 120°14'0 0.1
2017-Nov-19 21:00N 22°34' E 120°14'0 0.1
2017-Nov-19 20:30N 22°34' E 120°13'0 0.1
2017-Nov-19 20:00N 22°34' E 120°14'0 0.0
2017-Nov-19 19:30N 22°34' E 120°14'0 0.0
2017-Nov-19 19:00N 22°34' E 120°14'0 0.1
2017-Nov-19 18:30N 22°34' E 120°14'0 0.0
2017-Nov-19 18:00N 22°34' E 120°14'0 0.1
2017-Nov-19 17:29N 22°34' E 120°14'0 0.1
2017-Nov-19 17:00N 22°34' E 120°13'0 0.3
2017-Nov-19 16:30N 22°34' E 120°14'0 0.1
2017-Nov-19 16:00N 22°34' E 120°14'0 0.0
2017-Nov-19 15:29N 22°34' E 120°14'0 0.1
2017-Nov-19 14:57N 22°34' E 120°14'0 0.0
2017-Nov-19 14:27N 22°34' E 120°14'0 0.1
2017-Nov-19 14:00N 22°34' E 120°14'0 0.0
2017-Nov-19 13:30N 22°34' E 120°14'0 0.0
2017-Nov-19 12:59N 22°34' E 120°14'0 0.0
2017-Nov-19 12:26N 22°34' E 120°14'0 0.4
2017-Nov-19 12:00N 22°34' E 120°13'2 3.9
2017-Nov-19 11:30N 22°34' E 120°12'5 9.6
2017-Nov-19 11:00N 22°32' E 120°06'3 5.3
2017-Nov-19 10:30N 22°32' E 120°04'1 1.8
2017-Nov-19 10:00N 22°32' E 120°03'2 3.9
2017-Nov-19 09:30N 22°30' E 120°02'714.3
2017-Nov-19 09:00N 22°29' E 119°54'25610.7
2017-Nov-18 09:04N 22°13' E 115°18'215.1
2017-Nov-18 08:58N 22°13' E 115°16'915.8
2017-Nov-18 08:25N 22°13' E 115°07'816.0
2017-Nov-18 07:56N 22°14' E 114°59'816.1
2017-Nov-18 07:28N 22°15' E 114°50'716.0
2017-Nov-18 07:00N 22°16' E 114°43'815.0
2017-Nov-18 06:30N 22°18' E 114°35'715.0
2017-Nov-18 06:01N 22°24' E 114°30'611.2
2017-Nov-18 05:31N 22°29' E 114°27'612.7
2017-Nov-18 05:00N 22°35' E 114°24'2 3.3
2017-Nov-18 04:30N 22°37' E 114°23'0 0.0
2017-Nov-18 03:57N 22°37' E 114°23'0 0.0
2017-Nov-18 03:30N 22°37' E 114°23'0 0.0
2017-Nov-18 03:00N 22°37' E 114°23'0 0.0
2017-Nov-18 02:30N 22°37' E 114°23'0 0.0
2017-Nov-18 02:00N 22°37' E 114°23'0 0.0
2017-Nov-18 01:30N 22°37' E 114°23'0 0.0
2017-Nov-18 01:00N 22°37' E 114°23'0 0.0
2017-Nov-18 00:27N 22°37' E 114°23'0 0.0
2017-Nov-18 00:00N 22°37' E 114°23'0 0.0
2017-Nov-17 23:30N 22°37' E 114°23'0 0.0
2017-Nov-17 23:00N 22°37' E 114°23'0 0.0
2017-Nov-17 22:30N 22°37' E 114°23'0 0.0
2017-Nov-17 22:00N 22°37' E 114°23'0 0.0
2017-Nov-17 21:30N 22°37' E 114°23'0 0.0
2017-Nov-17 21:00N 22°37' E 114°23'0 0.0
2017-Nov-17 20:27N 22°37' E 114°23'0 0.0
2017-Nov-17 20:00N 22°37' E 114°23'0 0.0
2017-Nov-17 19:27N 22°37' E 114°23'0 0.0
2017-Nov-17 19:00N 22°37' E 114°23'0 0.0
2017-Nov-17 18:30N 22°37' E 114°23'0 0.0
2017-Nov-17 18:00N 22°37' E 114°23'0 0.0
2017-Nov-17 17:21N 22°37' E 114°23'0 0.0
2017-Nov-17 17:00N 22°37' E 114°23'0 0.0
2017-Nov-17 16:30N 22°37' E 114°23'0 0.0
2017-Nov-17 15:57N 22°37' E 114°23'0 0.0
2017-Nov-17 15:30N 22°37' E 114°23'0 0.0
2017-Nov-17 14:48N 22°37' E 114°23'0 0.0
2017-Nov-17 14:30N 22°37' E 114°23'0 0.0
2017-Nov-17 14:00N 22°37' E 114°23'0 0.0
2017-Nov-17 13:30N 22°37' E 114°23'0 0.0
2017-Nov-17 13:00N 22°37' E 114°23'0 0.0
2017-Nov-17 12:27N 22°37' E 114°23'0 0.0
2017-Nov-17 12:00N 22°37' E 114°23'0 0.0
2017-Nov-17 11:27N 22°37' E 114°23'0 0.0
2017-Nov-17 11:00N 22°37' E 114°23'0 0.0
2017-Nov-17 10:30N 22°37' E 114°23'0 0.0
2017-Nov-17 10:00N 22°37' E 114°23'0 0.0
2017-Nov-17 09:27N 22°37' E 114°23'0 0.0
2017-Nov-17 09:00N 22°37' E 114°23'0 0.0
2017-Nov-17 08:30N 22°37' E 114°23'0 0.0
2017-Nov-17 08:00N 22°37' E 114°23'0 0.0
2017-Nov-17 07:27N 22°37' E 114°23'0 0.0
2017-Nov-17 07:00N 22°37' E 114°23'0 0.0
2017-Nov-17 06:30N 22°37' E 114°23'0 0.0
2017-Nov-17 06:00N 22°37' E 114°23'0 0.0
2017-Nov-17 05:30N 22°37' E 114°23'0 0.0
2017-Nov-17 05:00N 22°37' E 114°23'0 0.0
2017-Nov-17 04:30N 22°37' E 114°23'0 0.0
2017-Nov-17 04:00N 22°37' E 114°23'0 0.0
2017-Nov-17 03:30N 22°37' E 114°23'0 0.0
2017-Nov-17 03:00N 22°37' E 114°23'0 0.0
2017-Nov-17 02:30N 22°37' E 114°23'0 0.0
2017-Nov-17 02:00N 22°37' E 114°23'0 0.0
2017-Nov-17 01:30N 22°37' E 114°23'1 1.9
2017-Nov-17 01:00N 22°36' E 114°24'5 9.1
2017-Nov-17 00:30N 22°31' E 114°25'4 8.4
2017-Nov-17 00:00N 22°28' E 114°28'510.8
2017-Nov-16 23:30N 22°25' E 114°32'1 2.7
2017-Nov-16 23:00N 22°24' E 114°34'0 0.1
2017-Nov-16 22:30N 22°24' E 114°34'0 0.0
2017-Nov-16 22:00N 22°24' E 114°34'0 0.0
2017-Nov-16 21:30N 22°24' E 114°34'0 0.0
2017-Nov-16 21:00N 22°24' E 114°34'0 0.0
2017-Nov-16 20:30N 22°24' E 114°34'0 0.0
2017-Nov-16 20:00N 22°24' E 114°34'0 0.0
2017-Nov-16 19:27N 22°24' E 114°34'0 0.0
2017-Nov-16 19:00N 22°24' E 114°34'0 0.0
2017-Nov-16 18:30N 22°24' E 114°34'0 0.0
2017-Nov-16 18:00N 22°24' E 114°34'0 0.0
2017-Nov-16 17:30N 22°24' E 114°34'0 0.0
2017-Nov-16 17:00N 22°24' E 114°34'0 0.0
2017-Nov-16 16:30N 22°24' E 114°34'0 0.0
2017-Nov-16 16:00N 22°24' E 114°34'0 0.0
2017-Nov-16 15:30N 22°24' E 114°34'0 0.0
2017-Nov-16 15:00N 22°24' E 114°34'0 0.0
2017-Nov-16 14:30N 22°24' E 114°34'0 0.0
2017-Nov-16 14:00N 22°24' E 114°34'0 0.0
2017-Nov-16 13:30N 22°24' E 114°34'0 0.0
2017-Nov-16 13:00N 22°24' E 114°34'0 0.0
2017-Nov-16 12:30N 22°24' E 114°34'0 0.0
2017-Nov-16 11:57N 22°24' E 114°34'0 0.2
2017-Nov-16 11:30N 22°24' E 114°34'2 4.7
2017-Nov-16 11:00N 22°22' E 114°33'510.6
2017-Nov-16 10:30N 22°16' E 114°34'612.7
2017-Nov-16 10:00N 22°10' E 114°35'612.5
2017-Nov-16 09:30N 22°04' E 114°36'1 1.0
2017-Nov-16 08:41N 22°03' E 114°36'1 1.6
2017-Nov-16 08:16N 22°03' E 114°37'0 1.5
2017-Nov-16 08:00N 22°04' E 114°38'1 1.6
2017-Nov-16 07:25N 22°04' E 114°39'1 1.6
2017-Nov-16 07:00N 22°04' E 114°39'1 1.7
2017-Nov-16 06:20N 22°04' E 114°40'1 1.5
2017-Nov-16 06:00N 22°04' E 114°41'1 1.6
2017-Nov-16 05:27N 22°04' E 114°42'1 1.5
2017-Nov-16 04:59N 22°04' E 114°43'0 0.6
2017-Nov-16 04:30N 22°05' E 114°42'3 5.5
2017-Nov-16 04:00N 22°02' E 114°41'1 0.3
2017-Nov-16 02:09N 22°03' E 114°41'0 1.7
2017-Nov-16 01:55N 22°03' E 114°42'1 1.7
2017-Nov-16 01:29N 22°03' E 114°42'1 1.5
2017-Nov-16 00:58N 22°04' E 114°43'0 0.4
2017-Nov-16 00:30N 22°04' E 114°43'2 4.4
2017-Nov-15 23:58N 22°02' E 114°41'1 1.5
2017-Nov-15 23:07N 22°02' E 114°40'1 1.6
2017-Nov-15 22:46N 22°03' E 114°40'1 1.6
2017-Nov-15 21:56N 22°03' E 114°41'1 1.5
2017-Nov-15 21:27N 22°04' E 114°42'0 0.6
2017-Nov-15 20:59N 22°04' E 114°42'3 5.2
2017-Nov-15 20:29N 22°03' E 114°39'711.9
2017-Nov-15 19:52N 21°56' E 114°38'713.2
2017-Nov-15 19:22N 21°50' E 114°36'  
Track history (hours):
 
Tides and Currents Weather Stations Pressure Air Temp Water Temp Dewpoint Dewpoint Depression Visibility Wind Speed Wind Dir Waves Ship Positions

Larkspur

Operator: Transeuropa Lines

Last reported at 2017-Nov-23 09:29 UTC. Time now 2017-Nov-23 20:50 UTC.
Position N 22°35' E 120°18'.

Length 225 m; draft 8.7 m.

Type: Tanker. MMSI: 311000344.

Date/timePositionNaut miles runAvg speedWind from/ knotsBaromVisibWave heightAir tempDewpointWater temp
2017-Nov-23 09:29N 22°35' E 120°18'1 1.3
2017-Nov-23 09:00N 22°34' E 120°18'  
2017-Nov-20 00:30N 22°34' E 120°14'0 0.1
2017-Nov-20 00:00N 22°34' E 120°14'0 0.0
2017-Nov-19 23:30N 22°34' E 120°14'0 0.0
2017-Nov-19 23:00N 22°34' E 120°14'0 0.1
2017-Nov-19 22:30N 22°34' E 120°14'0 0.1
2017-Nov-19 21:56N 22°34' E 120°14'0 0.1
2017-Nov-19 21:30N 22°34' E 120°14'0 0.1
2017-Nov-19 21:00N 22°34' E 120°14'0 0.1
2017-Nov-19 20:30N 22°34' E 120°13'0 0.1
2017-Nov-19 20:00N 22°34' E 120°14'0 0.0
2017-Nov-19 19:30N 22°34' E 120°14'0 0.0
2017-Nov-19 19:00N 22°34' E 120°14'0 0.1
2017-Nov-19 18:30N 22°34' E 120°14'0 0.0
2017-Nov-19 18:00N 22°34' E 120°14'0 0.1
2017-Nov-19 17:29N 22°34' E 120°14'0 0.1
2017-Nov-19 17:00N 22°34' E 120°13'0 0.3
2017-Nov-19 16:30N 22°34' E 120°14'0 0.1
2017-Nov-19 16:00N 22°34' E 120°14'0 0.0
2017-Nov-19 15:29N 22°34' E 120°14'0 0.1
2017-Nov-19 14:57N 22°34' E 120°14'0 0.0
2017-Nov-19 14:27N 22°34' E 120°14'0 0.1
2017-Nov-19 14:00N 22°34' E 120°14'0 0.0
2017-Nov-19 13:30N 22°34' E 120°14'0 0.0
2017-Nov-19 12:59N 22°34' E 120°14'0 0.0
2017-Nov-19 12:26N 22°34' E 120°14'0 0.4
2017-Nov-19 12:00N 22°34' E 120°13'2 3.9
2017-Nov-19 11:30N 22°34' E 120°12'5 9.6
2017-Nov-19 11:00N 22°32' E 120°06'3 5.3
2017-Nov-19 10:30N 22°32' E 120°04'1 1.8
2017-Nov-19 10:00N 22°32' E 120°03'2 3.9
2017-Nov-19 09:30N 22°30' E 120°02'714.3
2017-Nov-19 09:00N 22°29' E 119°54'25610.7
2017-Nov-18 09:04N 22°13' E 115°18'215.1
2017-Nov-18 08:58N 22°13' E 115°16'915.8
2017-Nov-18 08:25N 22°13' E 115°07'816.0
2017-Nov-18 07:56N 22°14' E 114°59'816.1
2017-Nov-18 07:28N 22°15' E 114°50'716.0
2017-Nov-18 07:00N 22°16' E 114°43'815.0
2017-Nov-18 06:30N 22°18' E 114°35'715.0
2017-Nov-18 06:01N 22°24' E 114°30'611.2
2017-Nov-18 05:31N 22°29' E 114°27'612.7
2017-Nov-18 05:00N 22°35' E 114°24'2 3.3
2017-Nov-18 04:30N 22°37' E 114°23'0 0.0
2017-Nov-18 03:57N 22°37' E 114°23'0 0.0
2017-Nov-18 03:30N 22°37' E 114°23'0 0.0
2017-Nov-18 03:00N 22°37' E 114°23'0 0.0
2017-Nov-18 02:30N 22°37' E 114°23'0 0.0
2017-Nov-18 02:00N 22°37' E 114°23'0 0.0
2017-Nov-18 01:30N 22°37' E 114°23'0 0.0
2017-Nov-18 01:00N 22°37' E 114°23'0 0.0
2017-Nov-18 00:27N 22°37' E 114°23'0 0.0
2017-Nov-18 00:00N 22°37' E 114°23'0 0.0
2017-Nov-17 23:30N 22°37' E 114°23'0 0.0
2017-Nov-17 23:00N 22°37' E 114°23'0 0.0
2017-Nov-17 22:30N 22°37' E 114°23'0 0.0
2017-Nov-17 22:00N 22°37' E 114°23'0 0.0
2017-Nov-17 21:30N 22°37' E 114°23'0 0.0
2017-Nov-17 21:00N 22°37' E 114°23'0 0.0
2017-Nov-17 20:27N 22°37' E 114°23'0 0.0
2017-Nov-17 20:00N 22°37' E 114°23'0 0.0
2017-Nov-17 19:27N 22°37' E 114°23'0 0.0
2017-Nov-17 19:00N 22°37' E 114°23'0 0.0
2017-Nov-17 18:30N 22°37' E 114°23'0 0.0
2017-Nov-17 18:00N 22°37' E 114°23'0 0.0
2017-Nov-17 17:21N 22°37' E 114°23'0 0.0
2017-Nov-17 17:00N 22°37' E 114°23'0 0.0
2017-Nov-17 16:30N 22°37' E 114°23'0 0.0
2017-Nov-17 15:57N 22°37' E 114°23'0 0.0
2017-Nov-17 15:30N 22°37' E 114°23'0 0.0
2017-Nov-17 14:48N 22°37' E 114°23'0 0.0
2017-Nov-17 14:30N 22°37' E 114°23'0 0.0
2017-Nov-17 14:00N 22°37' E 114°23'0 0.0
2017-Nov-17 13:30N 22°37' E 114°23'0 0.0
2017-Nov-17 13:00N 22°37' E 114°23'0 0.0
2017-Nov-17 12:27N 22°37' E 114°23'0 0.0
2017-Nov-17 12:00N 22°37' E 114°23'0 0.0
2017-Nov-17 11:27N 22°37' E 114°23'0 0.0
2017-Nov-17 11:00N 22°37' E 114°23'0 0.0
2017-Nov-17 10:30N 22°37' E 114°23'0 0.0
2017-Nov-17 10:00N 22°37' E 114°23'0 0.0
2017-Nov-17 09:27N 22°37' E 114°23'0 0.0
2017-Nov-17 09:00N 22°37' E 114°23'0 0.0
2017-Nov-17 08:30N 22°37' E 114°23'0 0.0
2017-Nov-17 08:00N 22°37' E 114°23'0 0.0
2017-Nov-17 07:27N 22°37' E 114°23'0 0.0
2017-Nov-17 07:00N 22°37' E 114°23'0 0.0
2017-Nov-17 06:30N 22°37' E 114°23'0 0.0
2017-Nov-17 06:00N 22°37' E 114°23'0 0.0
2017-Nov-17 05:30N 22°37' E 114°23'0 0.0
2017-Nov-17 05:00N 22°37' E 114°23'0 0.0
2017-Nov-17 04:30N 22°37' E 114°23'0 0.0
2017-Nov-17 04:00N 22°37' E 114°23'0 0.0
2017-Nov-17 03:30N 22°37' E 114°23'0 0.0
2017-Nov-17 03:00N 22°37' E 114°23'0 0.0
2017-Nov-17 02:30N 22°37' E 114°23'0 0.0
2017-Nov-17 02:00N 22°37' E 114°23'0 0.0
2017-Nov-17 01:30N 22°37' E 114°23'1 1.9
2017-Nov-17 01:00N 22°36' E 114°24'5 9.1
2017-Nov-17 00:30N 22°31' E 114°25'4 8.4
2017-Nov-17 00:00N 22°28' E 114°28'510.8
2017-Nov-16 23:30N 22°25' E 114°32'1 2.7
2017-Nov-16 23:00N 22°24' E 114°34'0 0.1
2017-Nov-16 22:30N 22°24' E 114°34'0 0.0
2017-Nov-16 22:00N 22°24' E 114°34'0 0.0
2017-Nov-16 21:30N 22°24' E 114°34'0 0.0
2017-Nov-16 21:00N 22°24' E 114°34'0 0.0
2017-Nov-16 20:30N 22°24' E 114°34'0 0.0
2017-Nov-16 20:00N 22°24' E 114°34'0 0.0
2017-Nov-16 19:27N 22°24' E 114°34'0 0.0
2017-Nov-16 19:00N 22°24' E 114°34'0 0.0
2017-Nov-16 18:30N 22°24' E 114°34'0 0.0
2017-Nov-16 18:00N 22°24' E 114°34'0 0.0
2017-Nov-16 17:30N 22°24' E 114°34'0 0.0
2017-Nov-16 17:00N 22°24' E 114°34'0 0.0
2017-Nov-16 16:30N 22°24' E 114°34'0 0.0
2017-Nov-16 16:00N 22°24' E 114°34'0 0.0
2017-Nov-16 15:30N 22°24' E 114°34'0 0.0
2017-Nov-16 15:00N 22°24' E 114°34'0 0.0
2017-Nov-16 14:30N 22°24' E 114°34'0 0.0
2017-Nov-16 14:00N 22°24' E 114°34'0 0.0
2017-Nov-16 13:30N 22°24' E 114°34'0 0.0
2017-Nov-16 13:00N 22°24' E 114°34'0 0.0
2017-Nov-16 12:30N 22°24' E 114°34'0 0.0
2017-Nov-16 11:57N 22°24' E 114°34'0 0.2
2017-Nov-16 11:30N 22°24' E 114°34'2 4.7
2017-Nov-16 11:00N 22°22' E 114°33'510.6
2017-Nov-16 10:30N 22°16' E 114°34'612.7
2017-Nov-16 10:00N 22°10' E 114°35'612.5
2017-Nov-16 09:30N 22°04' E 114°36'1 1.0
2017-Nov-16 08:41N 22°03' E 114°36'1 1.6
2017-Nov-16 08:16N 22°03' E 114°37'0 1.5
2017-Nov-16 08:00N 22°04' E 114°38'1 1.6
2017-Nov-16 07:25N 22°04' E 114°39'1 1.6
2017-Nov-16 07:00N 22°04' E 114°39'1 1.7
2017-Nov-16 06:20N 22°04' E 114°40'1 1.5
2017-Nov-16 06:00N 22°04' E 114°41'1 1.6
2017-Nov-16 05:27N 22°04' E 114°42'1 1.5
2017-Nov-16 04:59N 22°04' E 114°43'0 0.6
2017-Nov-16 04:30N 22°05' E 114°42'3 5.5
2017-Nov-16 04:00N 22°02' E 114°41'1 0.3
2017-Nov-16 02:09N 22°03' E 114°41'0 1.7
2017-Nov-16 01:55N 22°03' E 114°42'1 1.7
2017-Nov-16 01:29N 22°03' E 114°42'1 1.5
2017-Nov-16 00:58N 22°04' E 114°43'0 0.4
2017-Nov-16 00:30N 22°04' E 114°43'2 4.4
2017-Nov-15 23:58N 22°02' E 114°41'1 1.5
2017-Nov-15 23:07N 22°02' E 114°40'1 1.6
2017-Nov-15 22:46N 22°03' E 114°40'1 1.6
2017-Nov-15 21:56N 22°03' E 114°41'1 1.5
2017-Nov-15 21:27N 22°04' E 114°42'0 0.6
2017-Nov-15 20:59N 22°04' E 114°42'3 5.2
2017-Nov-15 20:29N 22°03' E 114°39'711.9
2017-Nov-15 19:52N 21°56' E 114°38'713.2
2017-Nov-15 19:22N 21°50' E 114°36'  

Dump ship's entire track history